sensor_id;sensor_type;location;lat;lon;timestamp;temperature;humidity
20492;DHT22;10404;51.468;6.762;2023-07-20T00:02:21;21.30;51.20
20492;DHT22;10404;51.468;6.762;2023-07-20T00:04:46;21.20;51.20
20492;DHT22;10404;51.468;6.762;2023-07-20T00:07:12;21.20;51.10
20492;DHT22;10404;51.468;6.762;2023-07-20T00:09:37;21.10;51.30
20492;DHT22;10404;51.468;6.762;2023-07-20T00:12:03;21.10;51.20
20492;DHT22;10404;51.468;6.762;2023-07-20T00:14:29;21.10;51.40
20492;DHT22;10404;51.468;6.762;2023-07-20T00:16:56;21.10;51.50
20492;DHT22;10404;51.468;6.762;2023-07-20T00:19:26;21.10;51.50
20492;DHT22;10404;51.468;6.762;2023-07-20T00:21:53;21.10;51.50
20492;DHT22;10404;51.468;6.762;2023-07-20T00:24:19;21.10;51.50
20492;DHT22;10404;51.468;6.762;2023-07-20T00:26:45;21.00;51.60
20492;DHT22;10404;51.468;6.762;2023-07-20T00:29:10;21.00;51.70
20492;DHT22;10404;51.468;6.762;2023-07-20T00:31:36;21.00;51.80
20492;DHT22;10404;51.468;6.762;2023-07-20T00:34:04;20.90;51.70
20492;DHT22;10404;51.468;6.762;2023-07-20T00:36:30;20.90;51.90
20492;DHT22;10404;51.468;6.762;2023-07-20T00:38:55;20.90;51.90
20492;DHT22;10404;51.468;6.762;2023-07-20T00:41:21;20.90;52.00
20492;DHT22;10404;51.468;6.762;2023-07-20T00:43:46;20.90;51.90
20492;DHT22;10404;51.468;6.762;2023-07-20T00:46:12;20.80;52.00
20492;DHT22;10404;51.468;6.762;2023-07-20T00:48:38;20.80;52.00
20492;DHT22;10404;51.468;6.762;2023-07-20T00:51:05;20.80;52.10
20492;DHT22;10404;51.468;6.762;2023-07-20T00:53:30;20.70;52.20
20492;DHT22;10404;51.468;6.762;2023-07-20T00:55:56;20.70;52.20
20492;DHT22;10404;51.468;6.762;2023-07-20T00:58:23;20.70;52.20
20492;DHT22;10404;51.468;6.762;2023-07-20T01:00:49;20.70;52.40
20492;DHT22;10404;51.468;6.762;2023-07-20T01:03:14;20.60;52.30
20492;DHT22;10404;51.468;6.762;2023-07-20T01:06:45;20.60;52.30
20492;DHT22;10404;51.468;6.762;2023-07-20T01:11:28;20.60;52.40
20492;DHT22;10404;51.468;6.762;2023-07-20T01:13:57;20.60;52.50
20492;DHT22;10404;51.468;6.762;2023-07-20T01:16:23;20.50;52.50
20492;DHT22;10404;51.468;6.762;2023-07-20T01:18:49;20.50;52.50
20492;DHT22;10404;51.468;6.762;2023-07-20T01:21:23;20.50;52.50
20492;DHT22;10404;51.468;6.762;2023-07-20T01:29:22;20.40;52.60
20492;DHT22;10404;51.468;6.762;2023-07-20T01:31:52;20.40;52.70
20492;DHT22;10404;51.468;6.762;2023-07-20T01:34:19;20.30;52.70
20492;DHT22;10404;51.468;6.762;2023-07-20T01:36:48;20.30;52.70
20492;DHT22;10404;51.468;6.762;2023-07-20T01:39:16;20.30;52.90
20492;DHT22;10404;51.468;6.762;2023-07-20T01:41:42;20.30;53.00
20492;DHT22;10404;51.468;6.762;2023-07-20T01:44:08;20.30;53.20
20492;DHT22;10404;51.468;6.762;2023-07-20T01:46:34;20.20;53.30
20492;DHT22;10404;51.468;6.762;2023-07-20T01:48:59;20.10;53.30
20492;DHT22;10404;51.468;6.762;2023-07-20T01:51:25;20.10;53.50
20492;DHT22;10404;51.468;6.762;2023-07-20T01:53:51;20.10;53.60
20492;DHT22;10404;51.468;6.762;2023-07-20T01:56:16;20.10;53.90
20492;DHT22;10404;51.468;6.762;2023-07-20T01:58:42;20.00;53.80
20492;DHT22;10404;51.468;6.762;2023-07-20T02:01:07;20.00;54.10
20492;DHT22;10404;51.468;6.762;2023-07-20T02:03:33;20.00;54.00
20492;DHT22;10404;51.468;6.762;2023-07-20T02:05:59;20.00;54.10
20492;DHT22;10404;51.468;6.762;2023-07-20T02:08:24;20.00;54.30
20492;DHT22;10404;51.468;6.762;2023-07-20T02:10:51;19.90;54.40
20492;DHT22;10404;51.468;6.762;2023-07-20T02:13:17;19.90;54.80
20492;DHT22;10404;51.468;6.762;2023-07-20T02:15:43;19.90;55.10
20492;DHT22;10404;51.468;6.762;2023-07-20T02:18:09;19.80;55.50
20492;DHT22;10404;51.468;6.762;2023-07-20T02:20:35;19.70;55.60
20492;DHT22;10404;51.468;6.762;2023-07-20T02:23:01;19.70;55.60
20492;DHT22;10404;51.468;6.762;2023-07-20T02:25:26;19.70;55.80
20492;DHT22;10404;51.468;6.762;2023-07-20T02:27:52;19.70;55.90
20492;DHT22;10404;51.468;6.762;2023-07-20T02:30:18;19.60;56.10
20492;DHT22;10404;51.468;6.762;2023-07-20T02:32:44;19.60;56.10
20492;DHT22;10404;51.468;6.762;2023-07-20T02:35:11;19.50;56.60
20492;DHT22;10404;51.468;6.762;2023-07-20T02:37:37;19.50;56.60
20492;DHT22;10404;51.468;6.762;2023-07-20T02:40:03;19.50;56.60
20492;DHT22;10404;51.468;6.762;2023-07-20T02:42:30;19.50;56.80
20492;DHT22;10404;51.468;6.762;2023-07-20T02:44:55;19.40;57.10
20492;DHT22;10404;51.468;6.762;2023-07-20T02:47:21;19.40;57.10
20492;DHT22;10404;51.468;6.762;2023-07-20T02:49:47;19.40;57.20
20492;DHT22;10404;51.468;6.762;2023-07-20T02:52:12;19.40;57.20
20492;DHT22;10404;51.468;6.762;2023-07-20T02:54:38;19.30;57.30
20492;DHT22;10404;51.468;6.762;2023-07-20T02:57:04;19.30;57.40
20492;DHT22;10404;51.468;6.762;2023-07-20T02:59:29;19.30;57.50
20492;DHT22;10404;51.468;6.762;2023-07-20T03:01:55;19.30;57.70
20492;DHT22;10404;51.468;6.762;2023-07-20T03:04:21;19.20;57.60
20492;DHT22;10404;51.468;6.762;2023-07-20T03:06:47;19.20;57.60
20492;DHT22;10404;51.468;6.762;2023-07-20T03:09:12;19.10;57.60
20492;DHT22;10404;51.468;6.762;2023-07-20T03:11:38;19.10;57.70
20492;DHT22;10404;51.468;6.762;2023-07-20T03:14:04;19.10;57.70
20492;DHT22;10404;51.468;6.762;2023-07-20T03:16:29;19.10;57.90
20492;DHT22;10404;51.468;6.762;2023-07-20T03:18:58;19.10;57.80
20492;DHT22;10404;51.468;6.762;2023-07-20T03:21:24;19.10;58.20
20492;DHT22;10404;51.468;6.762;2023-07-20T03:23:50;19.00;58.20
20492;DHT22;10404;51.468;6.762;2023-07-20T03:26:15;19.00;58.00
20492;DHT22;10404;51.468;6.762;2023-07-20T03:28:41;19.00;58.40
20492;DHT22;10404;51.468;6.762;2023-07-20T03:31:07;18.90;58.30
20492;DHT22;10404;51.468;6.762;2023-07-20T03:33:33;18.90;58.30
20492;DHT22;10404;51.468;6.762;2023-07-20T03:35:59;18.90;58.50
20492;DHT22;10404;51.468;6.762;2023-07-20T03:38:26;18.90;58.40
20492;DHT22;10404;51.468;6.762;2023-07-20T03:40:56;18.90;58.50
20492;DHT22;10404;51.468;6.762;2023-07-20T03:43:23;18.80;58.60
20492;DHT22;10404;51.468;6.762;2023-07-20T03:45:49;18.80;59.00
20492;DHT22;10404;51.468;6.762;2023-07-20T03:48:16;18.80;59.00
20492;DHT22;10404;51.468;6.762;2023-07-20T03:50:43;18.80;59.00
20492;DHT22;10404;51.468;6.762;2023-07-20T03:53:09;18.80;59.00
20492;DHT22;10404;51.468;6.762;2023-07-20T03:55:35;18.70;59.30
20492;DHT22;10404;51.468;6.762;2023-07-20T03:58:01;18.70;59.30
20492;DHT22;10404;51.468;6.762;2023-07-20T04:00:27;18.70;59.50
20492;DHT22;10404;51.468;6.762;2023-07-20T04:02:52;18.70;59.50
20492;DHT22;10404;51.468;6.762;2023-07-20T04:05:18;18.70;59.30
20492;DHT22;10404;51.468;6.762;2023-07-20T04:07:44;18.60;59.50
20492;DHT22;10404;51.468;6.762;2023-07-20T04:10:10;18.60;59.70
20492;DHT22;10404;51.468;6.762;2023-07-20T04:12:35;18.60;59.40
20492;DHT22;10404;51.468;6.762;2023-07-20T04:15:01;18.60;59.70
20492;DHT22;10404;51.468;6.762;2023-07-20T04:17:29;18.60;59.70
20492;DHT22;10404;51.468;6.762;2023-07-20T04:19:54;18.60;59.90
20492;DHT22;10404;51.468;6.762;2023-07-20T04:22:20;18.50;59.60
20492;DHT22;10404;51.468;6.762;2023-07-20T04:24:46;18.50;59.80
20492;DHT22;10404;51.468;6.762;2023-07-20T04:27:12;18.50;59.80
20492;DHT22;10404;51.468;6.762;2023-07-20T04:29:37;18.50;59.70
20492;DHT22;10404;51.468;6.762;2023-07-20T04:32:03;18.40;59.70
20492;DHT22;10404;51.468;6.762;2023-07-20T04:34:29;18.40;59.80
20492;DHT22;10404;51.468;6.762;2023-07-20T04:36:54;18.40;59.80
20492;DHT22;10404;51.468;6.762;2023-07-20T04:39:20;18.40;59.80
20492;DHT22;10404;51.468;6.762;2023-07-20T04:41:46;18.40;60.00
20492;DHT22;10404;51.468;6.762;2023-07-20T04:44:12;18.40;60.10
20492;DHT22;10404;51.468;6.762;2023-07-20T04:46:39;18.40;60.20
20492;DHT22;10404;51.468;6.762;2023-07-20T04:49:05;18.40;60.10
20492;DHT22;10404;51.468;6.762;2023-07-20T04:51:31;18.40;60.20
20492;DHT22;10404;51.468;6.762;2023-07-20T04:53:57;18.30;60.40
20492;DHT22;10404;51.468;6.762;2023-07-20T04:56:23;18.30;60.10
20492;DHT22;10404;51.468;6.762;2023-07-20T04:58:50;18.30;60.30
20492;DHT22;10404;51.468;6.762;2023-07-20T05:01:16;18.30;60.40
20492;DHT22;10404;51.468;6.762;2023-07-20T05:03:41;18.30;60.60
20492;DHT22;10404;51.468;6.762;2023-07-20T05:06:07;18.30;60.80
20492;DHT22;10404;51.468;6.762;2023-07-20T05:08:32;18.30;61.00
20492;DHT22;10404;51.468;6.762;2023-07-20T05:10:59;18.30;61.00
20492;DHT22;10404;51.468;6.762;2023-07-20T05:13:25;18.30;60.90
20492;DHT22;10404;51.468;6.762;2023-07-20T05:15:52;18.30;61.00
20492;DHT22;10404;51.468;6.762;2023-07-20T05:18:18;18.30;61.10
20492;DHT22;10404;51.468;6.762;2023-07-20T05:20:46;18.30;61.00
20492;DHT22;10404;51.468;6.762;2023-07-20T05:23:12;18.20;61.30
20492;DHT22;10404;51.468;6.762;2023-07-20T05:25:38;18.20;61.20
20492;DHT22;10404;51.468;6.762;2023-07-20T05:28:04;18.20;61.40
20492;DHT22;10404;51.468;6.762;2023-07-20T05:30:29;18.20;61.20
20492;DHT22;10404;51.468;6.762;2023-07-20T05:32:55;18.20;61.20
20492;DHT22;10404;51.468;6.762;2023-07-20T05:35:20;18.20;61.20
20492;DHT22;10404;51.468;6.762;2023-07-20T05:37:47;18.10;61.20
20492;DHT22;10404;51.468;6.762;2023-07-20T05:40:14;18.20;61.30
20492;DHT22;10404;51.468;6.762;2023-07-20T05:42:44;18.20;61.70
20492;DHT22;10404;51.468;6.762;2023-07-20T05:45:11;18.20;61.60
20492;DHT22;10404;51.468;6.762;2023-07-20T05:47:37;18.20;61.30
20492;DHT22;10404;51.468;6.762;2023-07-20T05:50:03;18.20;62.90
20492;DHT22;10404;51.468;6.762;2023-07-20T05:52:29;18.20;62.30
20492;DHT22;10404;51.468;6.762;2023-07-20T05:54:55;18.20;63.20
20492;DHT22;10404;51.468;6.762;2023-07-20T05:57:21;18.30;63.40
20492;DHT22;10404;51.468;6.762;2023-07-20T05:59:46;18.40;63.10
20492;DHT22;10404;51.468;6.762;2023-07-20T06:02:12;18.50;62.80
20492;DHT22;10404;51.468;6.762;2023-07-20T06:04:39;18.50;62.80
20492;DHT22;10404;51.468;6.762;2023-07-20T06:07:04;18.40;62.40
20492;DHT22;10404;51.468;6.762;2023-07-20T06:09:30;18.40;62.70
20492;DHT22;10404;51.468;6.762;2023-07-20T06:11:56;18.40;63.10
20492;DHT22;10404;51.468;6.762;2023-07-20T06:14:22;18.50;62.90
20492;DHT22;10404;51.468;6.762;2023-07-20T06:16:47;18.70;62.90
20492;DHT22;10404;51.468;6.762;2023-07-20T06:19:13;19.00;62.00
20492;DHT22;10404;51.468;6.762;2023-07-20T06:21:39;19.20;61.20
20492;DHT22;10404;51.468;6.762;2023-07-20T06:24:05;19.40;60.80
20492;DHT22;10404;51.468;6.762;2023-07-20T06:26:31;19.50;60.70
20492;DHT22;10404;51.468;6.762;2023-07-20T06:28:57;19.70;60.20
20492;DHT22;10404;51.468;6.762;2023-07-20T06:31:22;19.70;60.10
20492;DHT22;10404;51.468;6.762;2023-07-20T06:33:48;19.70;60.50
20492;DHT22;10404;51.468;6.762;2023-07-20T06:36:17;19.70;60.90
20492;DHT22;10404;51.468;6.762;2023-07-20T06:38:43;19.70;60.60
20492;DHT22;10404;51.468;6.762;2023-07-20T06:41:08;20.00;60.40
20492;DHT22;10404;51.468;6.762;2023-07-20T06:43:34;20.20;60.00
20492;DHT22;10404;51.468;6.762;2023-07-20T06:46:00;20.40;59.60
20492;DHT22;10404;51.468;6.762;2023-07-20T06:48:26;20.70;58.70
20492;DHT22;10404;51.468;6.762;2023-07-20T06:50:51;20.90;58.20
20492;DHT22;10404;51.468;6.762;2023-07-20T06:53:17;21.00;58.20
20492;DHT22;10404;51.468;6.762;2023-07-20T06:55:43;21.10;58.10
20492;DHT22;10404;51.468;6.762;2023-07-20T06:58:10;21.10;58.20
20492;DHT22;10404;51.468;6.762;2023-07-20T07:00:35;21.20;58.20
20492;DHT22;10404;51.468;6.762;2023-07-20T07:03:01;21.30;58.30
20492;DHT22;10404;51.468;6.762;2023-07-20T07:05:28;21.40;57.70
20492;DHT22;10404;51.468;6.762;2023-07-20T07:07:53;21.20;58.40
20492;DHT22;10404;51.468;6.762;2023-07-20T07:10:19;21.20;58.70
20492;DHT22;10404;51.468;6.762;2023-07-20T07:12:44;21.30;59.00
20492;DHT22;10404;51.468;6.762;2023-07-20T07:15:10;21.50;58.70
20492;DHT22;10404;51.468;6.762;2023-07-20T07:17:36;21.50;57.90
20492;DHT22;10404;51.468;6.762;2023-07-20T07:20:02;21.70;58.20
20492;DHT22;10404;51.468;6.762;2023-07-20T07:22:29;21.90;57.70
20492;DHT22;10404;51.468;6.762;2023-07-20T07:24:55;21.90;57.60
20492;DHT22;10404;51.468;6.762;2023-07-20T07:27:21;22.00;57.70
20492;DHT22;10404;51.468;6.762;2023-07-20T07:29:47;22.00;57.60
20492;DHT22;10404;51.468;6.762;2023-07-20T07:32:14;22.00;57.90
20492;DHT22;10404;51.468;6.762;2023-07-20T07:34:40;21.90;58.30
20492;DHT22;10404;51.468;6.762;2023-07-20T07:37:06;21.70;58.70
20492;DHT22;10404;51.468;6.762;2023-07-20T07:39:31;21.50;59.20
20492;DHT22;10404;51.468;6.762;2023-07-20T07:41:57;21.50;59.40
20492;DHT22;10404;51.468;6.762;2023-07-20T07:44:23;21.40;59.90
20492;DHT22;10404;51.468;6.762;2023-07-20T07:46:49;21.30;59.70
20492;DHT22;10404;51.468;6.762;2023-07-20T07:49:16;21.30;59.70
20492;DHT22;10404;51.468;6.762;2023-07-20T07:51:43;21.20;60.20
20492;DHT22;10404;51.468;6.762;2023-07-20T07:54:09;21.20;60.00
20492;DHT22;10404;51.468;6.762;2023-07-20T07:56:35;21.10;60.10
20492;DHT22;10404;51.468;6.762;2023-07-20T07:59:00;21.20;59.80
20492;DHT22;10404;51.468;6.762;2023-07-20T08:01:26;21.20;59.80
20492;DHT22;10404;51.468;6.762;2023-07-20T08:03:51;21.20;59.60
20492;DHT22;10404;51.468;6.762;2023-07-20T08:06:17;21.50;58.70
20492;DHT22;10404;51.468;6.762;2023-07-20T08:08:43;22.00;57.40
20492;DHT22;10404;51.468;6.762;2023-07-20T08:11:09;22.30;56.60
20492;DHT22;10404;51.468;6.762;2023-07-20T08:13:35;22.80;55.60
20492;DHT22;10404;51.468;6.762;2023-07-20T08:16:01;23.20;54.30
20492;DHT22;10404;51.468;6.762;2023-07-20T08:18:28;23.40;53.80
20492;DHT22;10404;51.468;6.762;2023-07-20T08:20:54;23.60;53.40
20492;DHT22;10404;51.468;6.762;2023-07-20T08:23:19;23.60;53.40
20492;DHT22;10404;51.468;6.762;2023-07-20T08:25:45;23.50;53.70
20492;DHT22;10404;51.468;6.762;2023-07-20T08:28:11;23.60;53.20
20492;DHT22;10404;51.468;6.762;2023-07-20T08:30:44;23.80;52.90
20492;DHT22;10404;51.468;6.762;2023-07-20T08:33:12;24.00;52.00
20492;DHT22;10404;51.468;6.762;2023-07-20T08:35:38;24.20;51.60
20492;DHT22;10404;51.468;6.762;2023-07-20T08:38:04;24.40;51.40
20492;DHT22;10404;51.468;6.762;2023-07-20T08:40:35;24.60;50.50
20492;DHT22;10404;51.468;6.762;2023-07-20T08:43:04;24.70;50.70
20492;DHT22;10404;51.468;6.762;2023-07-20T08:45:33;24.80;50.60
20492;DHT22;10404;51.468;6.762;2023-07-20T08:48:00;25.00;50.20
20492;DHT22;10404;51.468;6.762;2023-07-20T08:50:30;25.00;50.20
20492;DHT22;10404;51.468;6.762;2023-07-20T08:52:57;25.00;50.30
20492;DHT22;10404;51.468;6.762;2023-07-20T08:55:24;25.20;50.20
20492;DHT22;10404;51.468;6.762;2023-07-20T08:57:50;25.20;50.00
20492;DHT22;10404;51.468;6.762;2023-07-20T09:00:20;25.00;50.20
20492;DHT22;10404;51.468;6.762;2023-07-20T09:02:46;24.80;50.70
20492;DHT22;10404;51.468;6.762;2023-07-20T09:05:12;24.60;51.10
20492;DHT22;10404;51.468;6.762;2023-07-20T09:07:40;24.40;51.80
20492;DHT22;10404;51.468;6.762;2023-07-20T09:10:06;24.20;52.60
20492;DHT22;10404;51.468;6.762;2023-07-20T09:12:38;24.00;53.30
20492;DHT22;10404;51.468;6.762;2023-07-20T09:15:05;24.00;53.40
20492;DHT22;10404;51.468;6.762;2023-07-20T09:17:31;23.90;53.30
20492;DHT22;10404;51.468;6.762;2023-07-20T09:19:56;23.80;53.60
20492;DHT22;10404;51.468;6.762;2023-07-20T09:22:25;23.80;53.10
20492;DHT22;10404;51.468;6.762;2023-07-20T09:24:54;24.00;52.10
20492;DHT22;10404;51.468;6.762;2023-07-20T09:27:20;24.30;51.90
20492;DHT22;10404;51.468;6.762;2023-07-20T09:29:52;24.70;50.90
20492;DHT22;10404;51.468;6.762;2023-07-20T09:32:19;25.00;50.30
20492;DHT22;10404;51.468;6.762;2023-07-20T09:34:49;25.40;49.00
20492;DHT22;10404;51.468;6.762;2023-07-20T09:37:20;25.80;48.20
20492;DHT22;10404;51.468;6.762;2023-07-20T09:39:47;25.90;48.00
20492;DHT22;10404;51.468;6.762;2023-07-20T09:42:13;26.00;47.50
20492;DHT22;10404;51.468;6.762;2023-07-20T09:44:43;26.20;47.30
20492;DHT22;10404;51.468;6.762;2023-07-20T09:47:09;26.30;47.00
20492;DHT22;10404;51.468;6.762;2023-07-20T09:49:41;26.50;46.80
20492;DHT22;10404;51.468;6.762;2023-07-20T09:52:08;26.50;47.10
20492;DHT22;10404;51.468;6.762;2023-07-20T09:54:38;26.60;47.10
20492;DHT22;10404;51.468;6.762;2023-07-20T09:57:07;26.60;46.90
20492;DHT22;10404;51.468;6.762;2023-07-20T09:59:33;26.60;46.20
20492;DHT22;10404;51.468;6.762;2023-07-20T10:02:01;26.60;46.20
20492;DHT22;10404;51.468;6.762;2023-07-20T10:04:28;26.60;46.40
20492;DHT22;10404;51.468;6.762;2023-07-20T10:06:55;26.70;45.90
20492;DHT22;10404;51.468;6.762;2023-07-20T10:09:24;26.80;46.10
20492;DHT22;10404;51.468;6.762;2023-07-20T10:11:52;26.90;46.20
20492;DHT22;10404;51.468;6.762;2023-07-20T10:14:20;27.00;45.10
20492;DHT22;10404;51.468;6.762;2023-07-20T10:16:50;27.20;44.70
20492;DHT22;10404;51.468;6.762;2023-07-20T10:19:25;27.30;44.30
20492;DHT22;10404;51.468;6.762;2023-07-20T10:21:59;27.50;44.20
20492;DHT22;10404;51.468;6.762;2023-07-20T10:24:26;27.50;44.00
20492;DHT22;10404;51.468;6.762;2023-07-20T10:26:54;27.40;44.30
20492;DHT22;10404;51.468;6.762;2023-07-20T10:29:21;27.20;44.20
20492;DHT22;10404;51.468;6.762;2023-07-20T10:31:47;27.00;45.30
20492;DHT22;10404;51.468;6.762;2023-07-20T10:34:13;26.70;46.10
20492;DHT22;10404;51.468;6.762;2023-07-20T10:36:46;26.60;46.60
20492;DHT22;10404;51.468;6.762;2023-07-20T10:39:30;26.50;46.20
20492;DHT22;10404;51.468;6.762;2023-07-20T10:42:02;26.60;45.70
20492;DHT22;10404;51.468;6.762;2023-07-20T10:44:29;26.80;44.90
20492;DHT22;10404;51.468;6.762;2023-07-20T10:47:03;27.10;45.40
20492;DHT22;10404;51.468;6.762;2023-07-20T10:49:33;27.30;45.20
20492;DHT22;10404;51.468;6.762;2023-07-20T10:51:59;27.50;44.20
20492;DHT22;10404;51.468;6.762;2023-07-20T10:56:56;27.60;44.10
20492;DHT22;10404;51.468;6.762;2023-07-20T11:01:59;27.40;43.30
20492;DHT22;10404;51.468;6.762;2023-07-20T11:04:43;27.40;43.70
20492;DHT22;10404;51.468;6.762;2023-07-20T11:07:09;27.30;44.00
20492;DHT22;10404;51.468;6.762;2023-07-20T11:09:36;27.20;43.80
20492;DHT22;10404;51.468;6.762;2023-07-20T11:12:12;27.20;41.60
20492;DHT22;10404;51.468;6.762;2023-07-20T11:14:56;27.40;42.00
20492;DHT22;10404;51.468;6.762;2023-07-20T11:17:29;27.40;42.60
20492;DHT22;10404;51.468;6.762;2023-07-20T11:19:56;27.40;43.40
20492;DHT22;10404;51.468;6.762;2023-07-20T11:22:22;27.30;43.50
20492;DHT22;10404;51.468;6.762;2023-07-20T11:24:48;27.20;44.40
20492;DHT22;10404;51.468;6.762;2023-07-20T11:27:14;27.20;43.20
20492;DHT22;10404;51.468;6.762;2023-07-20T11:29:40;27.20;42.80
20492;DHT22;10404;51.468;6.762;2023-07-20T11:32:06;27.30;40.70
20492;DHT22;10404;51.468;6.762;2023-07-20T11:34:34;27.50;40.90
20492;DHT22;10404;51.468;6.762;2023-07-20T11:37:00;27.60;40.20
20492;DHT22;10404;51.468;6.762;2023-07-20T11:39:26;27.80;40.20
20492;DHT22;10404;51.468;6.762;2023-07-20T11:41:54;27.80;40.30
20492;DHT22;10404;51.468;6.762;2023-07-20T11:44:21;27.90;40.10
20492;DHT22;10404;51.468;6.762;2023-07-20T11:47:06;27.90;39.80
20492;DHT22;10404;51.468;6.762;2023-07-20T11:49:37;27.90;40.90
20492;DHT22;10404;51.468;6.762;2023-07-20T11:52:07;27.90;41.50
20492;DHT22;10404;51.468;6.762;2023-07-20T11:54:34;27.80;41.10
20492;DHT22;10404;51.468;6.762;2023-07-20T11:57:03;27.80;41.20
20492;DHT22;10404;51.468;6.762;2023-07-20T11:59:30;27.80;41.90
20492;DHT22;10404;51.468;6.762;2023-07-20T12:01:57;27.80;42.70
20492;DHT22;10404;51.468;6.762;2023-07-20T12:04:23;27.90;40.90
20492;DHT22;10404;51.468;6.762;2023-07-20T12:06:49;27.90;41.40
20492;DHT22;10404;51.468;6.762;2023-07-20T12:09:16;28.00;41.40
20492;DHT22;10404;51.468;6.762;2023-07-20T12:11:44;28.00;41.20
20492;DHT22;10404;51.468;6.762;2023-07-20T12:14:12;28.10;41.20
20492;DHT22;10404;51.468;6.762;2023-07-20T12:16:38;28.10;42.00
20492;DHT22;10404;51.468;6.762;2023-07-20T12:19:08;28.10;41.50
20492;DHT22;10404;51.468;6.762;2023-07-20T12:21:35;28.10;42.20
20492;DHT22;10404;51.468;6.762;2023-07-20T12:24:06;28.10;42.30
20492;DHT22;10404;51.468;6.762;2023-07-20T12:26:32;28.10;41.20
20492;DHT22;10404;51.468;6.762;2023-07-20T12:28:59;28.30;42.10
20492;DHT22;10404;51.468;6.762;2023-07-20T12:31:26;28.30;42.20
20492;DHT22;10404;51.468;6.762;2023-07-20T12:33:52;28.30;42.20
20492;DHT22;10404;51.468;6.762;2023-07-20T12:36:18;28.30;42.60
20492;DHT22;10404;51.468;6.762;2023-07-20T12:38:44;28.30;42.30
20492;DHT22;10404;51.468;6.762;2023-07-20T12:41:11;28.30;42.80
20492;DHT22;10404;51.468;6.762;2023-07-20T12:43:44;28.30;42.90
20492;DHT22;10404;51.468;6.762;2023-07-20T12:46:11;28.30;42.70
20492;DHT22;10404;51.468;6.762;2023-07-20T12:48:40;28.30;41.80
20492;DHT22;10404;51.468;6.762;2023-07-20T12:51:08;28.30;41.90
20492;DHT22;10404;51.468;6.762;2023-07-20T12:53:34;28.30;41.80
20492;DHT22;10404;51.468;6.762;2023-07-20T12:56:00;28.30;42.50
20492;DHT22;10404;51.468;6.762;2023-07-20T12:58:26;28.30;42.00
20492;DHT22;10404;51.468;6.762;2023-07-20T13:00:52;28.40;41.70
20492;DHT22;10404;51.468;6.762;2023-07-20T13:03:18;28.40;42.10
20492;DHT22;10404;51.468;6.762;2023-07-20T13:05:48;28.40;41.80
20492;DHT22;10404;51.468;6.762;2023-07-20T13:08:14;28.40;41.20
20492;DHT22;10404;51.468;6.762;2023-07-20T13:10:40;28.50;40.30
20492;DHT22;10404;51.468;6.762;2023-07-20T13:13:07;28.50;41.30
20492;DHT22;10404;51.468;6.762;2023-07-20T13:15:40;28.50;41.80
20492;DHT22;10404;51.468;6.762;2023-07-20T13:18:05;28.50;40.90
20492;DHT22;10404;51.468;6.762;2023-07-20T13:20:31;28.60;41.40
20492;DHT22;10404;51.468;6.762;2023-07-20T13:22:56;28.60;41.60
20492;DHT22;10404;51.468;6.762;2023-07-20T13:25:22;28.70;41.70
20492;DHT22;10404;51.468;6.762;2023-07-20T13:27:48;28.70;41.20
20492;DHT22;10404;51.468;6.762;2023-07-20T13:30:13;28.70;41.00
20492;DHT22;10404;51.468;6.762;2023-07-20T13:32:44;28.70;41.60
20492;DHT22;10404;51.468;6.762;2023-07-20T13:35:11;28.70;41.70
20492;DHT22;10404;51.468;6.762;2023-07-20T13:37:37;28.80;41.80
20492;DHT22;10404;51.468;6.762;2023-07-20T13:40:03;28.90;42.40
20492;DHT22;10404;51.468;6.762;2023-07-20T13:42:31;28.90;41.40
20492;DHT22;10404;51.468;6.762;2023-07-20T13:44:57;28.90;41.80
20492;DHT22;10404;51.468;6.762;2023-07-20T13:47:22;28.90;41.70
20492;DHT22;10404;51.468;6.762;2023-07-20T13:49:48;28.90;41.60
20492;DHT22;10404;51.468;6.762;2023-07-20T13:52:14;28.90;40.90
20492;DHT22;10404;51.468;6.762;2023-07-20T13:54:39;28.90;41.70
20492;DHT22;10404;51.468;6.762;2023-07-20T13:57:05;28.90;42.60
20492;DHT22;10404;51.468;6.762;2023-07-20T13:59:31;28.90;41.40
20492;DHT22;10404;51.468;6.762;2023-07-20T14:01:56;28.90;41.70
20492;DHT22;10404;51.468;6.762;2023-07-20T14:04:22;28.90;40.90
20492;DHT22;10404;51.468;6.762;2023-07-20T14:06:48;29.00;40.90
20492;DHT22;10404;51.468;6.762;2023-07-20T14:09:13;29.00;40.50
20492;DHT22;10404;51.468;6.762;2023-07-20T14:11:39;29.00;40.90
20492;DHT22;10404;51.468;6.762;2023-07-20T14:14:05;29.00;40.30
20492;DHT22;10404;51.468;6.762;2023-07-20T14:16:30;29.00;41.20
20492;DHT22;10404;51.468;6.762;2023-07-20T14:18:57;29.00;40.30
20492;DHT22;10404;51.468;6.762;2023-07-20T14:21:23;29.00;41.00
20492;DHT22;10404;51.468;6.762;2023-07-20T14:23:51;29.00;40.60
20492;DHT22;10404;51.468;6.762;2023-07-20T14:26:21;29.00;40.40
20492;DHT22;10404;51.468;6.762;2023-07-20T14:28:46;29.00;39.70
20492;DHT22;10404;51.468;6.762;2023-07-20T14:31:12;29.10;41.60
20492;DHT22;10404;51.468;6.762;2023-07-20T14:33:38;29.10;40.50
20492;DHT22;10404;51.468;6.762;2023-07-20T14:36:04;29.10;40.90
20492;DHT22;10404;51.468;6.762;2023-07-20T14:38:34;29.10;40.00
20492;DHT22;10404;51.468;6.762;2023-07-20T14:41:00;29.10;40.30
20492;DHT22;10404;51.468;6.762;2023-07-20T14:43:26;29.10;41.30
20492;DHT22;10404;51.468;6.762;2023-07-20T14:45:51;29.20;40.90
20492;DHT22;10404;51.468;6.762;2023-07-20T14:48:17;29.20;39.80
20492;DHT22;10404;51.468;6.762;2023-07-20T14:50:43;29.20;40.60
20492;DHT22;10404;51.468;6.762;2023-07-20T14:53:11;29.30;40.00
20492;DHT22;10404;51.468;6.762;2023-07-20T14:55:37;29.30;40.20
20492;DHT22;10404;51.468;6.762;2023-07-20T14:58:03;29.40;39.60
20492;DHT22;10404;51.468;6.762;2023-07-20T15:00:28;29.40;41.50
20492;DHT22;10404;51.468;6.762;2023-07-20T15:02:55;29.50;39.50
20492;DHT22;10404;51.468;6.762;2023-07-20T15:05:24;29.50;40.10
20492;DHT22;10404;51.468;6.762;2023-07-20T15:07:52;29.50;40.40
20492;DHT22;10404;51.468;6.762;2023-07-20T15:10:18;29.50;39.80
20492;DHT22;10404;51.468;6.762;2023-07-20T15:12:44;29.50;40.50
20492;DHT22;10404;51.468;6.762;2023-07-20T15:15:12;29.50;39.70
20492;DHT22;10404;51.468;6.762;2023-07-20T15:17:39;29.60;40.50
20492;DHT22;10404;51.468;6.762;2023-07-20T15:20:06;29.60;40.40
20492;DHT22;10404;51.468;6.762;2023-07-20T15:22:33;29.70;40.00
20492;DHT22;10404;51.468;6.762;2023-07-20T15:24:59;29.70;40.80
20492;DHT22;10404;51.468;6.762;2023-07-20T15:27:26;29.70;39.80
20492;DHT22;10404;51.468;6.762;2023-07-20T15:29:51;29.70;39.50
20492;DHT22;10404;51.468;6.762;2023-07-20T15:32:18;29.70;39.10
20492;DHT22;10404;51.468;6.762;2023-07-20T15:34:44;29.70;39.10
20492;DHT22;10404;51.468;6.762;2023-07-20T15:37:10;29.70;39.20
20492;DHT22;10404;51.468;6.762;2023-07-20T15:39:36;29.70;39.00
20492;DHT22;10404;51.468;6.762;2023-07-20T15:42:02;29.70;38.90